Time;durP1;ratioP1;P1;durP2;ratioP2;P2;SDS_P1;SDS_P2;PMS_P1;PMS_P2;Temp;Humidity;BMP_temperature;BMP_pressure;BME280_temperature;BME280_humidity;BME280_pressure;Samples;Min_cycle;Max_cycle;Signal;HPM_P1;HPM_P2
2022/06/03 00:02:42;;;;;;;2.17;1.20;;;16.00;64.50;;;;;;4974390;28;20202;-77
2022/06/03 00:05:31;;;;;;;1.70;1.10;;;16.00;65.70;;;;;;4992172;28;20171;-77
2022/06/03 00:08:26;;;;;;;2.03;1.67;;;16.00;66.00;;;;;;4992227;28;20163;-77
2022/06/03 00:11:05;;;;;;;1.92;1.27;;;16.00;65.90;;;;;;4991213;28;20175;-77
2022/06/03 00:14:02;;;;;;;2.05;1.00;;;16.00;66.20;;;;;;4993033;28;20203;-77
2022/06/03 00:17:05;;;;;;;1.70;0.90;;;16.00;66.70;;;;;;4992151;28;20202;-77
2022/06/03 00:19:52;;;;;;;1.50;1.10;;;15.90;66.90;;;;;;4973899;28;20630;-77
2022/06/03 00:22:37;;;;;;;2.03;1.48;;;15.90;67.00;;;;;;4992417;28;20612;-77
2022/06/03 00:25:14;;;;;;;2.00;1.38;;;15.90;67.60;;;;;;4998686;28;20254;-77
2022/06/03 00:27:45;;;;;;;1.60;1.00;;;15.90;67.60;;;;;;4991983;28;20581;-77
2022/06/03 00:30:58;;;;;;;1.50;1.10;;;15.90;68.40;;;;;;4973839;28;20221;-76
2022/06/03 00:34:08;;;;;;;1.90;1.30;;;15.90;69.40;;;;;;4893704;29;20668;-77
2022/06/03 00:36:56;;;;;;;3.28;1.17;;;15.80;69.40;;;;;;4942396;28;20237;-77
2022/06/03 00:39:44;;;;;;;2.65;1.20;;;15.80;69.60;;;;;;4991294;28;20184;-77
2022/06/03 00:42:34;;;;;;;2.05;1.20;;;15.80;70.20;;;;;;4974033;28;20212;-76
2022/06/03 00:45:30;;;;;;;1.77;1.42;;;15.70;70.80;;;;;;4958162;28;20591;-76
2022/06/03 00:48:17;;;;;;;1.50;0.90;;;15.70;71.30;;;;;;4993717;28;20249;-76
2022/06/03 00:51:12;;;;;;;2.95;1.10;;;15.70;71.00;;;;;;4977256;28;20746;-77
2022/06/03 00:53:52;;;;;;;1.83;1.23;;;15.60;72.50;;;;;;4995438;28;20217;-76
2022/06/03 00:56:38;;;;;;;2.10;1.30;;;15.60;72.50;;;;;;4995400;28;20175;-76
2022/06/03 00:59:28;;;;;;;2.10;1.23;;;15.60;73.40;;;;;;4978215;28;20174;-76
2022/06/03 01:02:31;;;;;;;1.80;1.10;;;15.50;72.90;;;;;;5000546;28;20191;-76
2022/06/03 01:05:33;;;;;;;2.00;1.10;;;15.50;74.20;;;;;;5015426;28;20516;-77
2022/06/03 01:08:05;;;;;;;1.60;1.17;;;15.50;74.60;;;;;;5022254;28;20185;-76
2022/06/03 01:11:17;;;;;;;2.47;1.55;;;15.40;74.40;;;;;;5012643;28;20184;-76
2022/06/03 01:14:02;;;;;;;1.80;1.55;;;15.40;75.80;;;;;;5015973;28;20205;-76
2022/06/03 01:16:57;;;;;;;2.58;1.45;;;15.40;74.90;;;;;;5016569;28;20608;-77
2022/06/03 01:19:55;;;;;;;5.05;1.52;;;15.30;76.60;;;;;;5033837;28;20170;-77
2022/06/03 01:22:26;;;;;;;1.83;1.40;;;15.30;77.00;;;;;;5034026;28;20202;-76
2022/06/03 01:25:25;;;;;;;2.33;1.40;;;15.20;76.30;;;;;;5016666;28;20161;-76
2022/06/03 01:28:12;;;;;;;1.83;1.30;;;15.20;78.30;;;;;;5034202;28;20292;-76
2022/06/03 01:31:04;;;;;;;2.38;1.83;;;15.20;78.80;;;;;;5015400;28;20185;-77
2022/06/03 01:33:58;;;;;;;2.00;1.20;;;15.20;78.20;;;;;;5018870;22;20611;-77
2022/06/03 01:36:29;;;;;;;2.25;1.33;;;15.10;79.60;;;;;;5018146;28;20174;-77
2022/06/03 01:39:33;;;;;;;1.70;1.15;;;15.10;78.90;;;;;;5034168;28;20732;-77
2022/06/03 01:42:42;;;;;;;2.05;1.30;;;15.10;80.50;;;;;;4933390;28;20243;-77
2022/06/03 01:45:36;;;;;;;2.28;1.15;;;15.10;80.90;;;;;;4963043;28;20709;-77
2022/06/03 01:48:02;;;;;;;1.80;0.98;;;15.10;81.40;;;;;;5007801;28;20172;-77
2022/06/03 01:50:49;;;;;;;1.67;1.30;;;15.10;80.60;;;;;;4973497;28;20172;-78
2022/06/03 01:53:48;;;;;;;1.70;1.00;;;15.10;81.80;;;;;;4974999;28;20195;-78
2022/06/03 01:56:50;;;;;;;3.95;1.20;;;15.10;83.00;;;;;;4974701;28;20254;-77
2022/06/03 01:59:19;;;;;;;2.05;1.17;;;15.10;83.10;;;;;;4974093;28;20171;-77
2022/06/03 02:02:23;;;;;;;2.30;1.38;;;15.00;82.40;;;;;;4973922;28;20207;-78
2022/06/03 02:05:10;;;;;;;2.42;1.30;;;15.00;84.10;;;;;;4966271;28;20568;-78
2022/06/03 02:07:50;;;;;;;1.98;1.35;;;15.00;84.10;;;;;;4974873;28;20220;-78
2022/06/03 02:10:21;;;;;;;2.03;1.48;;;15.00;84.50;;;;;;4974281;28;20190;-78
2022/06/03 02:13:48;;;;;;;3.25;1.40;;;15.00;84.60;;;;;;4974205;28;20172;-78
2022/06/03 02:16:49;;;;;;;1.63;1.30;;;15.00;85.40;;;;;;4960086;28;20203;-78
2022/06/03 02:19:40;;;;;;;2.22;1.20;;;15.00;85.60;;;;;;4977508;28;20179;-78
2022/06/03 02:22:18;;;;;;;1.83;1.23;;;15.00;85.50;;;;;;4973043;28;20203;-78
2022/06/03 02:25:26;;;;;;;1.90;1.25;;;15.00;85.70;;;;;;4974234;28;20187;-78
2022/06/03 02:28:30;;;;;;;2.10;1.40;;;15.00;86.40;;;;;;4998206;28;20194;-78
2022/06/03 02:31:43;;;;;;;1.70;1.10;;;15.00;86.80;;;;;;4972046;28;20307;-77
2022/06/03 02:34:19;;;;;;;1.80;1.10;;;15.00;86.80;;;;;;4968087;28;20762;-77
2022/06/03 02:37:16;;;;;;;1.80;1.08;;;15.00;87.20;;;;;;4973134;28;20167;-77
2022/06/03 02:39:51;;;;;;;1.80;1.30;;;15.00;87.80;;;;;;4972451;28;20180;-78
2022/06/03 02:42:19;;;;;;;2.40;1.08;;;14.90;87.90;;;;;;4972109;28;20706;-77
2022/06/03 02:45:03;;;;;;;2.25;1.48;;;14.90;87.30;;;;;;4973851;28;20184;-77
2022/06/03 02:47:41;;;;;;;2.75;1.10;;;14.90;87.80;;;;;;4974036;28;20262;-77
2022/06/03 02:50:44;;;;;;;2.40;1.65;;;14.90;89.30;;;;;;4973621;28;20243;-77
2022/06/03 02:53:47;;;;;;;1.67;1.55;;;14.90;89.50;;;;;;4973466;28;20190;-76
2022/06/03 02:56:22;;;;;;;2.10;1.42;;;14.80;89.60;;;;;;4976908;28;20171;-77
2022/06/03 02:59:10;;;;;;;2.30;1.60;;;14.80;88.90;;;;;;4989060;28;20183;-77
2022/06/03 03:01:53;;;;;;;1.70;1.30;;;14.80;90.00;;;;;;4970980;28;20205;-76
2022/06/03 03:04:41;;;;;;;1.65;1.30;;;14.70;90.30;;;;;;4972262;28;20663;-76
2022/06/03 03:07:25;;;;;;;2.08;1.10;;;14.70;90.50;;;;;;4973615;28;20168;-76
2022/06/03 03:10:13;;;;;;;2.20;1.30;;;14.60;90.70;;;;;;4973047;28;21163;-76
2022/06/03 03:13:20;;;;;;;2.00;1.40;;;14.60;90.90;;;;;;4972808;28;20178;-75
2022/06/03 03:16:04;;;;;;;2.00;1.50;;;14.60;91.10;;;;;;4973492;28;20168;-76
2022/06/03 03:18:58;;;;;;;1.60;1.20;;;14.60;90.70;;;;;;4972160;28;20648;-77
2022/06/03 03:21:55;;;;;;;3.00;1.40;;;14.50;91.30;;;;;;4972618;28;20164;-77
2022/06/03 03:24:43;;;;;;;1.60;1.00;;;14.50;91.40;;;;;;4973013;28;20282;-77
2022/06/03 03:27:43;;;;;;;1.90;1.40;;;14.50;91.50;;;;;;4973392;28;20170;-77
2022/06/03 03:30:30;;;;;;;1.70;1.38;;;14.50;92.00;;;;;;4965811;28;20194;-77
2022/06/03 03:33:04;;;;;;;2.35;1.50;;;14.50;92.20;;;;;;4974354;28;20207;-77
2022/06/03 03:35:49;;;;;;;2.30;1.20;;;14.50;92.40;;;;;;4975601;28;20183;-77
2022/06/03 03:39:00;;;;;;;1.70;1.13;;;14.50;92.50;;;;;;4971966;28;20250;-77
2022/06/03 03:41:52;;;;;;;2.63;1.83;;;14.50;92.60;;;;;;4972399;28;20335;-77
2022/06/03 03:44:33;;;;;;;2.10;1.25;;;14.50;92.60;;;;;;4973195;28;20194;-76
2022/06/03 03:47:49;;;;;;;2.22;1.67;;;14.50;92.50;;;;;;4972553;28;20171;-76
2022/06/03 03:50:36;;;;;;;1.92;1.40;;;14.50;93.00;;;;;;4988091;28;20197;-75
2022/06/03 03:53:29;;;;;;;2.83;1.75;;;14.50;93.00;;;;;;4972824;28;20194;-76
2022/06/03 03:56:10;;;;;;;1.65;1.23;;;14.50;93.10;;;;;;4972017;28;20176;-75
2022/06/03 03:58:47;;;;;;;3.22;1.35;;;14.60;93.20;;;;;;4971375;28;20186;-75
2022/06/03 04:01:42;;;;;;;2.42;1.30;;;14.60;93.20;;;;;;4972099;28;20168;-75
2022/06/03 04:04:30;;;;;;;2.13;1.40;;;14.60;93.20;;;;;;4989276;28;20199;-75
2022/06/03 04:07:05;;;;;;;1.50;1.00;;;14.70;93.60;;;;;;4973550;28;20266;-76
2022/06/03 04:09:52;;;;;;;1.80;1.23;;;14.70;93.50;;;;;;4971602;28;20179;-76
2022/06/03 04:12:52;;;;;;;1.90;1.20;;;14.70;93.60;;;;;;4976349;28;20167;-76
2022/06/03 04:15:36;;;;;;;1.95;1.17;;;14.80;93.80;;;;;;4971503;28;20168;-76
2022/06/03 04:18:32;;;;;;;1.95;1.30;;;14.80;93.50;;;;;;4971521;28;20203;-75
2022/06/03 04:21:09;;;;;;;1.98;1.30;;;14.90;93.90;;;;;;4971662;28;20179;-75
2022/06/03 04:23:55;;;;;;;1.70;1.35;;;14.90;93.90;;;;;;4974649;28;20202;-75
2022/06/03 04:26:47;;;;;;;1.60;1.00;;;14.90;93.80;;;;;;4975707;28;20171;-76
2022/06/03 04:29:34;;;;;;;1.83;1.33;;;15.00;93.90;;;;;;4991852;28;20287;-76
2022/06/03 04:32:18;;;;;;;1.80;1.20;;;15.10;93.90;;;;;;4975174;28;20180;-76
2022/06/03 04:35:22;;;;;;;2.38;1.20;;;15.10;94.10;;;;;;4975434;28;20302;-76
2022/06/03 04:38:09;;;;;;;2.47;1.10;;;15.20;94.10;;;;;;4958735;28;20202;-77
2022/06/03 04:40:56;;;;;;;2.15;1.30;;;15.30;94.10;;;;;;4975927;28;20164;-76
2022/06/03 04:43:30;;;;;;;2.50;1.30;;;15.30;94.20;;;;;;4975985;28;20272;-77
2022/06/03 04:46:47;;;;;;;1.65;1.10;;;15.40;94.20;;;;;;4976420;28;20899;-77
2022/06/03 04:49:36;;;;;;;1.98;1.20;;;15.40;94.20;;;;;;4989853;28;20188;-77
2022/06/03 04:52:04;;;;;;;2.22;1.40;;;15.60;94.30;;;;;;4974020;28;20612;-76
2022/06/03 04:54:51;;;;;;;2.40;1.13;;;15.70;94.50;;;;;;4975853;28;20187;-77
2022/06/03 04:57:45;;;;;;;2.20;1.07;;;15.80;94.70;;;;;;4976139;28;20658;-77
2022/06/03 05:00:24;;;;;;;2.40;1.25;;;16.00;94.70;;;;;;4974526;28;20649;-76
2022/06/03 05:03:18;;;;;;;2.03;1.00;;;16.10;94.50;;;;;;4973819;28;20217;-77
2022/06/03 05:06:00;;;;;;;1.50;0.90;;;16.30;94.40;;;;;;4975591;28;20172;-76
2022/06/03 05:08:47;;;;;;;5.13;1.23;;;16.40;94.30;;;;;;4974673;28;20636;-76
2022/06/03 05:11:31;;;;;;;2.27;1.20;;;16.50;94.20;;;;;;4973294;28;20578;-76
2022/06/03 05:14:34;;;;;;;2.03;0.93;;;16.70;94.30;;;;;;4982281;28;20625;-75
2022/06/03 05:17:18;;;;;;;2.17;1.27;;;16.80;93.90;;;;;;4994803;28;20185;-75
2022/06/03 05:20:02;;;;;;;2.43;1.00;;;17.00;93.60;;;;;;4975510;28;20598;-75
2022/06/03 05:22:38;;;;;;;1.70;0.90;;;17.10;93.30;;;;;;4985495;28;20636;-74
2022/06/03 05:25:31;;;;;;;1.83;0.90;;;17.20;93.10;;;;;;4997128;28;21260;-74
2022/06/03 05:28:27;;;;;;;2.03;1.10;;;17.20;92.90;;;;;;4994473;28;20566;-74
2022/06/03 05:30:59;;;;;;;2.37;0.93;;;17.30;92.90;;;;;;4991079;28;20920;-75
2022/06/03 05:33:41;;;;;;;1.50;0.80;;;17.40;92.70;;;;;;4992169;28;20622;-75
2022/06/03 05:36:20;;;;;;;2.10;1.00;;;17.50;92.40;;;;;;4994066;28;20601;-74
2022/06/03 05:39:13;;;;;;;2.10;0.90;;;17.60;92.50;;;;;;4994384;28;20573;-75
2022/06/03 05:45:12;;;;;;;1.63;0.80;;;17.90;92.00;;;;;;4993718;28;20689;-76
2022/06/03 05:48:10;;;;;;;1.83;1.00;;;18.10;91.80;;;;;;4993421;28;21192;-76
2022/06/03 05:50:46;;;;;;;3.87;0.80;;;18.30;92.10;;;;;;4992623;28;20574;-77
2022/06/03 05:53:33;;;;;;;1.70;0.90;;;18.90;93.00;;;;;;4993473;28;20605;-75
2022/06/03 05:56:05;;;;;;;2.23;0.80;;;19.80;93.80;;;;;;4994479;28;21209;-75
2022/06/03 05:58:37;;;;;;;1.50;0.77;;;21.10;94.50;;;;;;4994607;28;20666;-77
2022/06/03 06:01:21;;;;;;;1.30;0.63;;;22.00;93.00;;;;;;4977235;28;20574;-76
2022/06/03 06:03:59;;;;;;;1.33;0.70;;;23.30;94.10;;;;;;4993127;28;21207;-76
2022/06/03 06:06:31;;;;;;;1.83;0.63;;;24.50;92.30;;;;;;4990315;28;20717;-76
2022/06/03 06:09:15;;;;;;;2.57;0.73;;;25.80;92.90;;;;;;4989606;28;21103;-77
2022/06/03 06:11:46;;;;;;;2.00;0.60;;;26.70;90.00;;;;;;4972876;28;20578;-76
2022/06/03 06:14:49;;;;;;;1.30;0.67;;;27.70;77.00;;;;;;4974319;28;20610;-76
2022/06/03 06:17:30;;;;;;;1.30;0.70;;;28.40;79.20;;;;;;4974342;28;20654;-76
2022/06/03 06:20:08;;;;;;;2.50;0.70;;;29.30;71.80;;;;;;4999849;28;20772;-77
2022/06/03 06:22:49;;;;;;;2.87;0.70;;;29.80;55.70;;;;;;4993129;28;20563;-77
2022/06/03 06:25:37;;;;;;;2.00;0.63;;;29.80;58.70;;;;;;4993687;28;20577;-77
2022/06/03 06:28:03;;;;;;;6.60;1.17;;;30.10;58.70;;;;;;4993737;28;20565;-76
2022/06/03 06:30:50;;;;;;;1.50;0.80;;;30.70;59.10;;;;;;4993382;28;20913;-76
2022/06/03 06:33:43;;;;;;;3.30;0.70;;;30.80;56.00;;;;;;4992277;28;20207;-74
2022/06/03 06:36:37;;;;;;;1.90;0.80;;;31.10;56.30;;;;;;4993872;28;20570;-75
2022/06/03 06:39:22;;;;;;;1.30;0.70;;;31.50;55.10;;;;;;4996505;28;20584;-75
2022/06/03 06:42:33;;;;;;;1.67;0.67;;;31.50;52.40;;;;;;4993279;28;20616;-75
2022/06/03 06:45:29;;;;;;;4.70;0.80;;;31.30;52.40;;;;;;5001440;28;21018;-76
2022/06/03 06:47:55;;;;;;;2.00;0.70;;;31.20;51.80;;;;;;5013862;28;20668;-75
2022/06/03 06:50:26;;;;;;;2.13;0.70;;;31.40;51.70;;;;;;5008325;28;20579;-76
2022/06/03 06:52:56;;;;;;;1.60;0.70;;;31.50;51.10;;;;;;4992816;28;20198;-77
2022/06/03 06:55:44;;;;;;;2.60;0.70;;;31.60;51.30;;;;;;4993196;28;20574;-77
2022/06/03 06:58:25;;;;;;;1.90;0.60;;;31.70;50.60;;;;;;4992462;28;20575;-77
2022/06/03 07:00:53;;;;;;;2.23;0.73;;;32.10;50.60;;;;;;4999638;28;20582;-77
2022/06/03 07:03:37;;;;;;;1.70;0.83;;;32.60;50.30;;;;;;4992899;28;20640;-78
2022/06/03 07:06:21;;;;;;;1.97;0.70;;;32.40;48.40;;;;;;5001229;28;20602;-75
2022/06/03 07:08:57;;;;;;;2.10;0.87;;;32.50;48.30;;;;;;4996572;28;20662;-75
2022/06/03 07:11:36;;;;;;;2.13;0.50;;;32.80;48.00;;;;;;4992264;28;20576;-75
2022/06/03 07:14:10;;;;;;;3.90;0.70;;;33.10;48.00;;;;;;5000136;28;20697;-75
2022/06/03 07:20:07;;;;;;;1.30;0.60;;;33.50;47.30;;;;;;4988801;28;20582;-75
2022/06/03 07:22:56;;;;;;;4.03;0.70;;;34.00;47.00;;;;;;4990503;28;20644;-75
2022/06/03 07:25:21;;;;;;;1.57;0.57;;;34.50;46.50;;;;;;4991476;28;20673;-76
2022/06/03 07:28:15;;;;;;;2.37;0.90;;;35.20;46.70;;;;;;4992566;28;20728;-76
2022/06/03 07:30:49;;;;;;;1.23;0.60;;;35.50;44.80;;;;;;4992238;28;20211;-76
2022/06/03 07:33:34;;;;;;;1.30;0.60;;;35.70;42.30;;;;;;4991007;28;20959;-76
2022/06/03 07:36:21;;;;;;;1.80;0.90;;;35.80;42.70;;;;;;4992490;28;20924;-75
2022/06/03 07:38:56;;;;;;;1.40;0.67;;;35.90;42.30;;;;;;4991472;28;20574;-75
2022/06/03 07:42:06;;;;;;;1.23;0.60;;;36.10;42.20;;;;;;4990456;28;20607;-75
2022/06/03 07:44:43;;;;;;;2.07;0.67;;;36.20;42.30;;;;;;4915899;29;20631;-76
2022/06/03 07:47:10;;;;;;;1.30;0.70;;;36.50;40.80;;;;;;4988224;28;20585;-76
2022/06/03 07:49:38;;;;;;;1.40;0.50;;;36.80;41.50;;;;;;4991875;28;20562;-76
2022/06/03 07:52:11;;;;;;;1.43;0.53;;;37.30;40.40;;;;;;5016807;23;21072;-75
2022/06/03 07:54:50;;;;;;;1.30;0.60;;;37.60;39.60;;;;;;5000617;28;20591;-75
2022/06/03 07:57:22;;;;;;;1.70;0.50;;;37.70;38.80;;;;;;5021698;28;20615;-75
2022/06/03 07:59:48;;;;;;;1.60;0.60;;;37.40;37.60;;;;;;5027806;28;21131;-75
2022/06/03 08:02:20;;;;;;;2.27;0.60;;;37.20;37.40;;;;;;5018195;28;20647;-75
2022/06/03 08:04:49;;;;;;;1.40;0.50;;;37.10;37.30;;;;;;5023417;28;20580;-75
2022/06/03 08:13:05;;;;;;;3.57;0.57;;;37.50;37.30;;;;;;5015221;28;20608;-74
2022/06/03 08:15:36;;;;;;;1.90;0.60;;;37.90;38.30;;;;;;5022345;28;20588;-74
2022/06/03 08:18:06;;;;;;;2.23;0.50;;;38.30;37.50;;;;;;5024197;28;21031;-74
2022/06/03 08:20:51;;;;;;;1.60;0.70;;;38.70;37.60;;;;;;5002366;28;20597;-74
2022/06/03 08:23:19;;;;;;;1.87;0.50;;;39.10;37.00;;;;;;5031303;28;21099;-74
2022/06/03 08:25:49;;;;;;;2.20;0.60;;;39.50;37.50;;;;;;5031221;28;21127;-74
2022/06/03 08:28:20;;;;;;;1.80;0.60;;;39.80;36.10;;;;;;5030933;28;20659;-75
2022/06/03 08:30:51;;;;;;;2.40;0.57;;;39.60;35.20;;;;;;5030960;28;20663;-75
2022/06/03 08:33:30;;;;;;;3.90;0.70;;;39.70;35.30;;;;;;5031237;28;20600;-75
2022/06/03 08:35:56;;;;;;;1.50;0.67;;;39.50;34.10;;;;;;5013535;28;20564;-74
2022/06/03 08:38:29;;;;;;;1.97;0.47;;;39.10;33.30;;;;;;5031130;28;20573;-75
2022/06/03 08:41:06;;;;;;;1.30;0.60;;;39.00;33.80;;;;;;5030346;28;20600;-74
2022/06/03 08:43:53;;;;;;;2.00;0.60;;;39.10;34.40;;;;;;5030928;28;20627;-74
2022/06/03 08:46:26;;;;;;;3.40;0.90;;;39.30;35.10;;;;;;5031008;28;21107;-75
2022/06/03 08:49:03;;;;;;;1.50;0.60;;;39.70;35.20;;;;;;5031143;28;20560;-75
2022/06/03 08:51:47;;;;;;;1.77;0.60;;;39.90;33.60;;;;;;5030191;28;20568;-74
2022/06/03 08:54:35;;;;;;;2.70;0.70;;;40.10;33.60;;;;;;5030697;28;20699;-75
2022/06/03 08:57:31;;;;;;;1.83;0.70;;;40.30;33.90;;;;;;5030805;28;20569;-75
2022/06/03 09:00:13;;;;;;;1.30;0.60;;;40.10;31.20;;;;;;5013789;28;20955;-74
2022/06/03 09:03:22;;;;;;;2.17;0.60;;;39.50;31.20;;;;;;5030642;28;20727;-75
2022/06/03 09:06:06;;;;;;;1.20;0.50;;;38.70;31.40;;;;;;5013918;28;20647;-74
2022/06/03 09:08:48;;;;;;;1.97;0.60;;;38.10;31.80;;;;;;5032239;28;21112;-74
2022/06/03 09:11:21;;;;;;;1.53;0.60;;;37.60;31.70;;;;;;5033428;28;20571;-75
2022/06/03 09:14:04;;;;;;;4.53;0.50;;;37.00;31.60;;;;;;5034881;28;20978;-74
2022/06/03 09:16:32;;;;;;;1.33;0.50;;;36.70;33.40;;;;;;5034657;28;20701;-74
2022/06/03 09:19:05;;;;;;;1.37;0.63;;;36.80;34.20;;;;;;5034593;28;21022;-74
2022/06/03 09:21:34;;;;;;;1.70;0.60;;;37.10;34.90;;;;;;5033693;28;20579;-75
2022/06/03 09:24:09;;;;;;;1.20;0.50;;;37.60;34.60;;;;;;5034083;28;20595;-75
2022/06/03 09:26:47;;;;;;;1.57;0.60;;;38.10;34.80;;;;;;5033922;28;20968;-75
2022/06/03 09:29:16;;;;;;;1.30;0.60;;;38.80;35.10;;;;;;5034131;28;20888;-74
2022/06/03 09:31:48;;;;;;;1.30;0.50;;;39.40;34.70;;;;;;5033255;28;20568;-75
2022/06/03 09:34:15;;;;;;;1.47;0.70;;;39.90;34.00;;;;;;5033696;28;20584;-75
2022/06/03 09:36:41;;;;;;;1.50;0.60;;;40.20;32.40;;;;;;5034126;28;20588;-75
2022/06/03 09:39:12;;;;;;;2.33;0.70;;;39.90;31.70;;;;;;5033942;28;20568;-76
2022/06/03 09:41:42;;;;;;;1.20;0.50;;;39.80;32.80;;;;;;5033041;28;20642;-75
2022/06/03 09:44:11;;;;;;;1.63;0.50;;;40.00;32.40;;;;;;4996364;28;20605;-75
2022/06/03 09:46:38;;;;;;;1.20;0.50;;;40.20;32.30;;;;;;5014101;28;20561;-75
2022/06/03 09:49:05;;;;;;;1.97;0.57;;;40.40;31.40;;;;;;4996387;28;21223;-75
2022/06/03 09:54:29;;;;;;;1.73;0.60;;;40.40;30.50;;;;;;5013420;28;20581;-77
2022/06/03 09:57:12;;;;;;;1.97;0.70;;;40.10;31.00;;;;;;5013841;28;20565;-76
2022/06/03 09:59:43;;;;;;;1.30;0.60;;;40.00;30.70;;;;;;5013409;28;20578;-76
2022/06/03 10:02:09;;;;;;;1.83;0.70;;;39.80;30.50;;;;;;5012874;28;20633;-76
2022/06/03 10:04:35;;;;;;;1.63;0.90;;;39.60;30.60;;;;;;5013610;28;20570;-75
2022/06/03 10:07:02;;;;;;;1.30;0.60;;;39.40;31.80;;;;;;5013100;28;20599;-75
2022/06/03 10:17:54;;;;;;;2.87;0.67;;;38.30;30.70;;;;;;5036516;28;20903;-75
2022/06/03 10:20:20;;;;;;;2.23;0.70;;;38.20;32.00;;;;;;5032261;28;20591;-75
2022/06/03 10:22:46;;;;;;;1.50;0.70;;;38.30;32.20;;;;;;5031401;28;20734;-76
2022/06/03 10:25:13;;;;;;;1.40;0.60;;;37.80;31.60;;;;;;5032834;28;20264;-76
2022/06/03 10:27:39;;;;;;;1.50;0.67;;;37.80;31.80;;;;;;5032749;28;21183;-75
2022/06/03 10:30:06;;;;;;;1.33;0.60;;;37.70;32.30;;;;;;5032619;28;20659;-75
2022/06/03 10:32:33;;;;;;;1.27;0.60;;;37.60;31.20;;;;;;5014447;28;20193;-75
2022/06/03 10:35:15;;;;;;;1.60;0.70;;;37.50;31.50;;;;;;5032840;28;20669;-75
2022/06/03 10:37:49;;;;;;;1.63;0.65;;;37.30;30.70;;;;;;5031729;28;20713;-75
2022/06/03 10:40:16;;;;;;;1.67;0.67;;;36.70;31.20;;;;;;5032265;28;20165;-75
2022/06/03 10:42:46;;;;;;;1.43;0.60;;;36.80;31.70;;;;;;5014098;28;20631;-75
2022/06/03 10:45:13;;;;;;;2.37;0.60;;;36.90;32.10;;;;;;5032663;28;20633;-75
2022/06/03 10:47:43;;;;;;;1.50;0.50;;;37.00;32.50;;;;;;5014701;28;20576;-75
2022/06/03 10:50:27;;;;;;;1.67;0.60;;;37.10;32.70;;;;;;5032318;28;20987;-75
2022/06/03 11:01:06;;;;;;;1.40;0.57;;;37.20;32.00;;;;;;5032330;28;21115;-75
2022/06/03 11:01:55;;;;;;;1.33;0.60;;;37.50;33.30;;;;;;5021632;28;20632;-75
2022/06/03 11:04:39;;;;;;;2.03;0.80;;;37.70;33.40;;;;;;5026323;28;20597;-76
2022/06/03 11:07:34;;;;;;;1.57;0.63;;;37.90;32.20;;;;;;5018021;28;20603;-75
2022/06/03 11:10:08;;;;;;;1.70;0.50;;;38.10;32.70;;;;;;5016885;28;21021;-75
2022/06/03 11:12:34;;;;;;;1.40;0.70;;;38.30;32.70;;;;;;5028791;28;20693;-75
2022/06/03 11:15:00;;;;;;;1.20;0.50;;;38.40;31.70;;;;;;5020186;28;20612;-75
2022/06/03 11:17:36;;;;;;;2.67;0.80;;;38.30;31.90;;;;;;5011791;28;21148;-75
2022/06/03 11:20:17;;;;;;;1.30;0.60;;;38.10;31.90;;;;;;4999296;28;20683;-75
2022/06/03 11:22:45;;;;;;;2.25;0.70;;;37.90;31.20;;;;;;5027065;28;20835;-75
2022/06/03 11:25:27;;;;;;;2.07;0.60;;;37.40;31.70;;;;;;5007168;28;20645;-75
2022/06/03 11:28:17;;;;;;;1.70;0.70;;;37.20;31.30;;;;;;5022181;28;20580;-75
2022/06/03 11:31:07;;;;;;;1.83;0.93;;;36.80;31.30;;;;;;4988973;28;20695;-74
2022/06/03 11:33:48;;;;;;;1.93;0.60;;;36.50;32.00;;;;;;5010174;28;20620;-75
2022/06/03 11:36:25;;;;;;;2.27;0.67;;;36.20;32.20;;;;;;5013877;28;20578;-75
2022/06/03 11:39:01;;;;;;;2.37;0.70;;;36.00;32.20;;;;;;5031618;28;20571;-75
2022/06/03 11:41:56;;;;;;;1.20;0.60;;;35.80;32.40;;;;;;5030230;28;20568;-75
2022/06/03 11:44:42;;;;;;;1.63;0.60;;;35.90;32.70;;;;;;5031492;28;20594;-75
2022/06/03 11:47:21;;;;;;;2.33;0.60;;;35.80;33.00;;;;;;5031655;28;20572;-74
2022/06/03 11:49:47;;;;;;;1.90;0.70;;;36.00;33.50;;;;;;5031428;28;20590;-74
2022/06/03 11:52:13;;;;;;;1.87;0.70;;;36.00;32.90;;;;;;5030676;28;21242;-75
2022/06/03 11:54:39;;;;;;;2.90;0.70;;;35.90;32.20;;;;;;5013837;28;20216;-75
2022/06/03 11:57:07;;;;;;;1.30;0.60;;;35.80;32.70;;;;;;5031518;28;21435;-75
2022/06/03 11:59:50;;;;;;;3.80;0.70;;;35.90;32.70;;;;;;5031343;28;20598;-75
2022/06/03 12:02:28;;;;;;;2.30;0.80;;;35.90;31.70;;;;;;5012273;28;20733;-77
2022/06/03 12:05:00;;;;;;;1.50;0.50;;;35.50;32.60;;;;;;5013702;28;21187;-75
2022/06/03 12:07:51;;;;;;;1.60;0.80;;;35.50;32.70;;;;;;5031446;28;20607;-75
2022/06/03 12:10:40;;;;;;;1.50;0.73;;;35.30;31.90;;;;;;5031272;28;20570;-75
2022/06/03 12:13:26;;;;;;;1.27;0.60;;;35.20;32.40;;;;;;5030780;28;20606;-75
2022/06/03 12:15:58;;;;;;;1.30;0.60;;;35.10;32.60;;;;;;5019784;28;21050;-74
2022/06/03 12:18:37;;;;;;;1.40;0.70;;;35.20;33.00;;;;;;5010940;28;20760;-75
2022/06/03 12:21:26;;;;;;;1.30;0.60;;;35.00;32.80;;;;;;5010152;28;20176;-75
2022/06/03 12:23:54;;;;;;;1.30;0.70;;;34.90;32.70;;;;;;5011376;28;20996;-75
2022/06/03 12:26:31;;;;;;;1.80;0.97;;;34.60;32.30;;;;;;4993702;28;20583;-74
2022/06/03 12:29:17;;;;;;;1.67;0.70;;;34.20;32.40;;;;;;5011193;28;20720;-74
2022/06/03 12:31:45;;;;;;;1.57;0.70;;;33.80;33.40;;;;;;5010521;28;21182;-74
2022/06/03 12:34:24;;;;;;;1.70;0.80;;;33.60;33.10;;;;;;5010969;28;20721;-74
2022/06/03 12:36:52;;;;;;;1.80;0.60;;;33.30;33.60;;;;;;4993762;28;20652;-74
2022/06/03 12:39:28;;;;;;;2.07;0.70;;;33.20;33.50;;;;;;5011233;28;20595;-74
2022/06/03 12:42:21;;;;;;;1.70;0.70;;;33.10;34.00;;;;;;5010171;28;20629;-74
2022/06/03 12:45:03;;;;;;;1.50;0.70;;;33.10;34.00;;;;;;4984516;28;20597;-74
2022/06/03 12:47:34;;;;;;;2.63;0.90;;;32.90;34.70;;;;;;5014349;28;20577;-74
2022/06/03 12:50:28;;;;;;;1.60;0.70;;;32.80;35.00;;;;;;4996476;28;20574;-74
2022/06/03 12:53:11;;;;;;;1.50;0.70;;;32.60;34.90;;;;;;5013975;28;20953;-74
2022/06/03 12:55:38;;;;;;;2.10;0.70;;;32.50;34.80;;;;;;5014281;28;21101;-74
2022/06/03 12:58:36;;;;;;;2.10;0.90;;;32.10;36.00;;;;;;5014591;28;20188;-74
2022/06/03 13:01:05;;;;;;;1.50;0.87;;;31.80;35.80;;;;;;5013857;28;20593;-74
2022/06/03 13:03:34;;;;;;;1.50;0.90;;;31.50;35.30;;;;;;5014004;28;20627;-74
2022/06/03 13:06:05;;;;;;;1.90;0.80;;;31.40;35.70;;;;;;5014513;28;20625;-74
2022/06/03 13:08:34;;;;;;;1.53;0.70;;;31.20;36.10;;;;;;5014669;28;21202;-74
2022/06/03 13:11:01;;;;;;;1.53;0.83;;;31.00;35.90;;;;;;5013600;28;20975;-74
2022/06/03 13:13:28;;;;;;;1.97;0.80;;;30.80;36.40;;;;;;5014528;28;20600;-74
2022/06/03 13:16:14;;;;;;;1.70;0.70;;;30.60;36.10;;;;;;5014160;28;20565;-75
2022/06/03 13:18:43;;;;;;;1.80;0.90;;;30.50;36.50;;;;;;5013769;28;20613;-75
2022/06/03 13:21:09;;;;;;;2.03;0.90;;;30.50;36.90;;;;;;4996433;28;21200;-75
2022/06/03 13:23:38;;;;;;;3.70;0.80;;;30.60;37.10;;;;;;4982023;28;20684;-75
2022/06/03 13:26:22;;;;;;;1.50;0.80;;;30.70;37.50;;;;;;5013902;28;20213;-74
2022/06/03 13:29:07;;;;;;;3.70;0.77;;;30.70;37.50;;;;;;5013877;28;20664;-75
2022/06/03 13:31:42;;;;;;;5.80;0.70;;;30.80;37.70;;;;;;5011162;28;20593;-75
2022/06/03 13:36:53;;;;;;;1.30;0.60;;;31.00;37.50;;;;;;5013744;28;20584;-74
2022/06/03 13:39:19;;;;;;;2.53;0.70;;;31.10;37.60;;;;;;5012848;28;20170;-75
2022/06/03 13:44:47;;;;;;;1.30;0.70;;;31.30;38.40;;;;;;5014011;28;20163;-74
2022/06/03 13:47:20;;;;;;;2.47;1.47;;;31.30;37.70;;;;;;5012042;28;20620;-75
2022/06/03 13:50:03;;;;;;;3.67;0.87;;;31.40;37.80;;;;;;5012167;28;20565;-75
2022/06/03 13:52:34;;;;;;;2.23;0.70;;;31.40;38.10;;;;;;5013045;28;20619;-75
2022/06/03 13:55:37;;;;;;;1.70;0.73;;;31.50;38.30;;;;;;4995144;28;21172;-75
2022/06/03 13:58:15;;;;;;;2.30;0.80;;;31.50;38.40;;;;;;5013675;28;20565;-74
2022/06/03 14:03:56;;;;;;;7.83;1.10;;;31.60;38.70;;;;;;4932289;29;20691;-78
2022/06/03 14:06:57;;;;;;;6.83;0.80;;;31.60;39.30;;;;;;4936483;29;20608;-78
2022/06/03 14:09:29;;;;;;;1.40;0.70;;;31.70;39.20;;;;;;4904748;29;20600;-80
2022/06/03 14:12:09;;;;;;;2.83;0.67;;;31.80;39.20;;;;;;4935291;29;20644;-80
2022/06/03 14:14:38;;;;;;;1.60;0.70;;;31.80;39.30;;;;;;4935295;29;20617;-79
2022/06/03 14:17:20;;;;;;;4.23;0.70;;;31.90;39.80;;;;;;4906307;29;20935;-79
2022/06/03 14:19:51;;;;;;;3.73;0.90;;;32.00;40.60;;;;;;4931601;29;20657;-79
2022/06/03 14:22:44;;;;;;;2.80;0.73;;;32.00;40.00;;;;;;4934083;29;20699;-80
2022/06/03 14:25:26;;;;;;;1.40;0.70;;;32.00;40.20;;;;;;4915709;29;20589;-79
2022/06/03 14:27:59;;;;;;;3.60;0.93;;;32.10;40.10;;;;;;4917001;29;20971;-79
2022/06/03 14:30:38;;;;;;;4.20;1.03;;;32.00;40.40;;;;;;4916161;29;20574;-79
2022/06/03 14:33:05;;;;;;;3.83;1.00;;;32.00;40.90;;;;;;4899069;29;20645;-79
2022/06/03 14:35:37;;;;;;;3.23;0.87;;;32.00;40.40;;;;;;4926832;29;20601;-79
2022/06/03 14:38:11;;;;;;;2.07;0.90;;;32.00;40.50;;;;;;4928628;29;20656;-79
2022/06/03 14:40:40;;;;;;;3.00;1.10;;;32.00;40.70;;;;;;4935315;29;21067;-80
2022/06/03 14:43:11;;;;;;;5.77;0.93;;;31.90;40.80;;;;;;4916695;29;20885;-79